Time;durP1;ratioP1;P1;durP2;ratioP2;P2;SDS_P1;SDS_P2;PMS_P1;PMS_P2;Temp;Humidity;BMP_temperature;BMP_pressure;BME280_temperature;BME280_humidity;BME280_pressure;Samples;Min_cycle;Max_cycle;Signal;HPM_P1;HPM_P2
2023/09/05 00:02:04;;;;;;;8.52;7.10;;;18.70;99.90;;;;;;5096573;28;20697;-80
2023/09/05 00:04:29;;;;;;;10.13;8.25;;;18.60;99.90;;;;;;5097351;28;20172;-82
2023/09/05 00:06:56;;;;;;;9.20;7.82;;;18.60;99.90;;;;;;5097498;28;20164;-81
2023/09/05 00:09:22;;;;;;;9.60;7.70;;;18.70;99.90;;;;;;5097241;28;20160;-80
2023/09/05 00:11:48;;;;;;;14.65;11.05;;;18.80;99.90;;;;;;5097489;28;20688;-81
2023/09/05 00:14:17;;;;;;;10.00;7.88;;;18.80;99.90;;;;;;5097311;28;20184;-81
2023/09/05 00:16:43;;;;;;;11.45;7.78;;;18.80;99.90;;;;;;5096872;28;20172;-80
2023/09/05 00:19:08;;;;;;;8.98;7.20;;;18.80;99.90;;;;;;5097016;28;20230;-80
2023/09/05 00:21:34;;;;;;;6.30;5.70;;;18.80;99.90;;;;;;5095948;28;20274;-81
2023/09/05 00:24:31;;;;;;;10.50;6.13;;;18.80;99.90;;;;;;5097031;28;20531;-80
2023/09/05 00:27:01;;;;;;;7.78;6.10;;;18.80;99.90;;;;;;5096982;28;20168;-81
2023/09/05 00:29:27;;;;;;;7.20;6.38;;;18.70;99.90;;;;;;5096883;28;20168;-81
2023/09/05 00:31:54;;;;;;;7.50;6.90;;;18.70;99.90;;;;;;5096988;28;20193;-81
2023/09/05 00:34:19;;;;;;;7.80;6.88;;;18.60;99.90;;;;;;5095534;28;20192;-81
2023/09/05 00:36:48;;;;;;;7.87;7.07;;;18.70;99.90;;;;;;5096556;28;20168;-81
2023/09/05 00:39:16;;;;;;;7.95;6.38;;;18.70;99.90;;;;;;5096305;28;20208;-80
2023/09/05 00:41:43;;;;;;;8.20;6.20;;;18.60;99.90;;;;;;5096386;28;20160;-81
2023/09/05 00:44:09;;;;;;;7.43;6.70;;;18.40;99.90;;;;;;5096194;28;20174;-81
2023/09/05 00:46:34;;;;;;;13.27;11.88;;;18.30;99.90;;;;;;5096271;28;20246;-81
2023/09/05 00:49:02;;;;;;;14.77;10.77;;;18.30;99.90;;;;;;5096403;28;20206;-81
2023/09/05 00:51:32;;;;;;;17.60;12.55;;;18.20;99.90;;;;;;5096173;28;20613;-81
2023/09/05 00:54:07;;;;;;;11.35;8.60;;;18.10;99.90;;;;;;5096137;28;20168;-80
2023/09/05 00:56:35;;;;;;;11.73;7.45;;;18.10;99.90;;;;;;5096222;28;20171;-81
2023/09/05 00:59:01;;;;;;;9.15;6.97;;;18.00;99.90;;;;;;5095747;28;20184;-81
2023/09/05 01:01:27;;;;;;;9.10;7.20;;;18.00;99.90;;;;;;5095023;28;20228;-81
2023/09/05 01:03:56;;;;;;;9.53;7.07;;;18.10;99.90;;;;;;5095779;28;20182;-81
2023/09/05 01:06:34;;;;;;;8.20;7.40;;;18.10;99.90;;;;;;5096017;28;20565;-80
2023/09/05 01:09:16;;;;;;;10.13;7.20;;;18.00;99.90;;;;;;5095757;28;20217;-81
2023/09/05 01:11:43;;;;;;;12.83;7.63;;;18.00;99.90;;;;;;5095579;28;20178;-82
2023/09/05 01:14:08;;;;;;;10.70;7.93;;;18.00;99.90;;;;;;5094902;28;20175;-81
2023/09/05 01:16:34;;;;;;;9.13;8.23;;;18.00;99.90;;;;;;5095462;28;20172;-81
2023/09/05 01:19:01;;;;;;;8.43;7.63;;;18.00;99.90;;;;;;5093896;28;20219;-81
2023/09/05 01:21:39;;;;;;;9.00;7.43;;;18.00;99.90;;;;;;5095649;28;20239;-80
2023/09/05 01:24:21;;;;;;;11.37;7.43;;;18.00;99.90;;;;;;5095985;28;20176;-80
2023/09/05 01:26:49;;;;;;;10.47;7.30;;;18.00;99.90;;;;;;5094728;28;20696;-81
2023/09/05 01:29:17;;;;;;;17.90;7.83;;;18.00;99.90;;;;;;5095414;28;20255;-82
2023/09/05 01:31:45;;;;;;;8.90;7.57;;;18.00;99.90;;;;;;5095840;28;20174;-80
2023/09/05 01:34:11;;;;;;;11.20;7.40;;;18.00;99.90;;;;;;5095934;28;20180;-81
2023/09/05 01:36:36;;;;;;;9.60;7.83;;;18.00;99.90;;;;;;5095765;28;20230;-80
2023/09/05 01:39:02;;;;;;;16.33;7.63;;;18.00;99.90;;;;;;5095616;28;20582;-81
2023/09/05 01:41:28;;;;;;;7.50;6.80;;;18.00;99.90;;;;;;5095050;28;20571;-80
2023/09/05 01:43:53;;;;;;;7.53;6.83;;;18.00;99.90;;;;;;5094856;28;20180;-81
2023/09/05 01:46:19;;;;;;;7.50;6.80;;;17.90;99.90;;;;;;5095210;28;20548;-80
2023/09/05 01:48:44;;;;;;;7.60;6.90;;;17.80;99.90;;;;;;5095044;28;20170;-81
2023/09/05 01:51:10;;;;;;;11.50;7.13;;;17.70;99.90;;;;;;5093780;28;20179;-81
2023/09/05 01:53:36;;;;;;;8.43;6.87;;;17.70;99.90;;;;;;5095603;28;20180;-80
2023/09/05 01:56:01;;;;;;;7.60;6.93;;;17.70;99.90;;;;;;5095291;28;20257;-80
2023/09/05 01:58:27;;;;;;;7.90;7.10;;;17.60;99.90;;;;;;5094885;28;20192;-80
2023/09/05 02:00:52;;;;;;;7.40;6.70;;;17.60;99.90;;;;;;5095377;28;20172;-80
2023/09/05 02:03:18;;;;;;;7.30;6.60;;;17.60;99.90;;;;;;5095458;28;20172;-80
2023/09/05 02:05:43;;;;;;;6.67;6.13;;;17.50;99.90;;;;;;5095360;28;20627;-81
2023/09/05 02:08:09;;;;;;;7.90;7.10;;;17.50;99.90;;;;;;5095376;28;20168;-80
2023/09/05 02:10:35;;;;;;;9.37;7.20;;;17.50;99.90;;;;;;5095137;28;20221;-80
2023/09/05 02:13:00;;;;;;;8.20;7.30;;;17.50;99.90;;;;;;5094874;28;20175;-81
2023/09/05 02:15:26;;;;;;;8.17;6.77;;;17.50;99.90;;;;;;5094809;28;20176;-79
2023/09/05 02:17:55;;;;;;;8.97;7.10;;;17.40;99.90;;;;;;5094902;28;20225;-80
2023/09/05 02:20:21;;;;;;;7.67;6.93;;;17.40;99.90;;;;;;5094467;28;20236;-81
2023/09/05 02:22:47;;;;;;;11.40;7.47;;;17.30;99.90;;;;;;5094907;28;20179;-79
2023/09/05 02:25:12;;;;;;;7.87;7.10;;;17.30;99.90;;;;;;5093551;28;20226;-80
2023/09/05 02:27:38;;;;;;;7.60;6.93;;;17.30;99.90;;;;;;5094414;28;20160;-80
2023/09/05 02:30:06;;;;;;;7.50;6.90;;;17.30;99.90;;;;;;5095040;28;20530;-81
2023/09/05 02:32:32;;;;;;;7.53;6.73;;;17.20;99.90;;;;;;5094608;28;20229;-81
2023/09/05 02:35:01;;;;;;;7.33;6.57;;;17.20;99.90;;;;;;5094852;28;20575;-80
2023/09/05 02:37:27;;;;;;;9.17;6.80;;;17.10;99.90;;;;;;5094539;28;20246;-80
2023/09/05 02:39:53;;;;;;;7.93;7.13;;;17.10;99.90;;;;;;5093905;28;20218;-80
2023/09/05 02:42:18;;;;;;;9.87;7.03;;;17.10;99.90;;;;;;5094298;28;20176;-80
2023/09/05 02:44:44;;;;;;;7.67;6.97;;;17.10;99.90;;;;;;5094502;28;20179;-80
2023/09/05 02:47:10;;;;;;;8.23;6.83;;;17.00;99.90;;;;;;5094195;28;20168;-79
2023/09/05 02:49:35;;;;;;;7.70;7.00;;;17.00;99.90;;;;;;5094237;28;20172;-80
2023/09/05 02:52:01;;;;;;;7.80;6.93;;;16.90;99.90;;;;;;5094187;28;20535;-81
2023/09/05 02:54:30;;;;;;;8.63;7.23;;;16.90;99.90;;;;;;5093846;28;20176;-80
2023/09/05 02:56:55;;;;;;;10.10;7.53;;;16.90;99.90;;;;;;5094189;28;20175;-80
2023/09/05 02:59:22;;;;;;;9.93;7.93;;;16.90;99.90;;;;;;5093986;28;20207;-79
2023/09/05 03:01:48;;;;;;;9.33;7.33;;;16.90;99.90;;;;;;5094097;28;20670;-80
2023/09/05 03:04:16;;;;;;;7.63;6.93;;;16.90;99.90;;;;;;5093883;28;20172;-80
2023/09/05 03:06:42;;;;;;;8.67;7.03;;;16.90;99.90;;;;;;5094045;28;20221;-80
2023/09/05 03:09:08;;;;;;;9.17;7.13;;;16.90;99.90;;;;;;5093615;28;20179;-80
2023/09/05 03:11:34;;;;;;;8.60;7.13;;;16.90;99.90;;;;;;5093791;28;20175;-80
2023/09/05 03:14:01;;;;;;;9.57;7.30;;;16.80;99.90;;;;;;5092426;28;20176;-79
2023/09/05 03:16:28;;;;;;;8.60;7.07;;;16.80;99.90;;;;;;5093410;28;20258;-81
2023/09/05 03:18:59;;;;;;;9.03;7.37;;;16.70;99.90;;;;;;5093809;28;20211;-79
2023/09/05 03:21:25;;;;;;;11.10;7.40;;;16.60;99.90;;;;;;5093374;28;20662;-81
2023/09/05 03:23:51;;;;;;;8.03;7.20;;;16.60;99.90;;;;;;5093721;28;20252;-80
2023/09/05 03:26:18;;;;;;;8.30;7.33;;;16.60;99.90;;;;;;5093899;28;20183;-79
2023/09/05 03:28:45;;;;;;;8.17;7.37;;;16.60;99.90;;;;;;5093721;28;20217;-80
2023/09/05 03:31:11;;;;;;;8.00;7.20;;;16.60;99.90;;;;;;5093923;28;20164;-80
2023/09/05 03:33:37;;;;;;;10.43;7.07;;;16.50;99.90;;;;;;5092330;28;20211;-80
2023/09/05 03:36:05;;;;;;;10.67;7.50;;;16.50;99.90;;;;;;5095373;28;20236;-80
2023/09/05 03:38:31;;;;;;;9.97;7.47;;;16.50;99.90;;;;;;5097691;28;20257;-81
2023/09/05 03:40:57;;;;;;;8.73;7.80;;;16.50;99.90;;;;;;5097773;28;20175;-80
2023/09/05 03:43:23;;;;;;;8.13;7.43;;;16.60;99.90;;;;;;5098228;28;20203;-81
2023/09/05 03:45:49;;;;;;;9.47;7.47;;;16.60;99.90;;;;;;5097928;28;20191;-80
2023/09/05 03:48:15;;;;;;;8.07;7.23;;;16.70;99.90;;;;;;5097768;28;20209;-80
2023/09/05 03:50:41;;;;;;;8.87;7.13;;;16.60;99.90;;;;;;5097440;28;20176;-80
2023/09/05 03:53:06;;;;;;;8.00;7.30;;;16.60;99.90;;;;;;5096881;28;20176;-80
2023/09/05 03:55:34;;;;;;;8.77;7.00;;;16.60;99.90;;;;;;5097224;28;20254;-80
2023/09/05 03:58:00;;;;;;;11.80;7.90;;;16.60;99.90;;;;;;5097494;28;20202;-79
2023/09/05 04:00:26;;;;;;;9.73;7.50;;;16.50;99.90;;;;;;5097341;28;20219;-80
2023/09/05 04:02:52;;;;;;;8.47;7.60;;;16.50;99.90;;;;;;5097150;28;20230;-80
2023/09/05 04:05:17;;;;;;;8.90;7.60;;;16.50;99.90;;;;;;5097154;28;20534;-80
2023/09/05 04:07:43;;;;;;;9.63;7.97;;;16.40;99.90;;;;;;5096639;28;20296;-79
2023/09/05 04:10:09;;;;;;;9.07;8.20;;;16.30;99.90;;;;;;5096705;28;20175;-81
2023/09/05 04:12:34;;;;;;;11.67;7.57;;;16.30;99.90;;;;;;5097274;28;20247;-80
2023/09/05 04:15:00;;;;;;;10.97;7.50;;;16.20;99.90;;;;;;5096881;28;20615;-80
2023/09/05 04:17:26;;;;;;;8.33;7.40;;;16.20;99.90;;;;;;5095557;28;20582;-80
2023/09/05 04:19:53;;;;;;;12.07;7.47;;;16.10;99.90;;;;;;5096658;28;20255;-81
2023/09/05 04:22:21;;;;;;;8.80;7.87;;;16.20;99.90;;;;;;5096346;28;20172;-79
2023/09/05 04:24:51;;;;;;;9.40;7.60;;;16.20;99.90;;;;;;5096700;28;20220;-80
2023/09/05 04:27:16;;;;;;;8.60;7.70;;;16.10;99.90;;;;;;5096295;28;20245;-80
2023/09/05 04:29:42;;;;;;;12.93;7.67;;;16.10;99.90;;;;;;5096750;28;20258;-79
2023/09/05 04:32:08;;;;;;;7.90;7.07;;;16.10;99.90;;;;;;5096373;28;20195;-79
2023/09/05 04:34:34;;;;;;;11.33;7.07;;;16.00;99.90;;;;;;5095913;28;20278;-79
2023/09/05 04:37:00;;;;;;;10.13;6.90;;;16.00;99.90;;;;;;5096234;28;20172;-80
2023/09/05 04:39:26;;;;;;;15.27;7.90;;;16.00;99.90;;;;;;5096313;28;20218;-80
2023/09/05 04:41:51;;;;;;;11.00;7.87;;;15.90;99.90;;;;;;5096482;28;20468;-80
2023/09/05 04:44:17;;;;;;;11.10;7.70;;;15.90;99.90;;;;;;5077965;28;20175;-80
2023/09/05 04:46:45;;;;;;;11.40;7.50;;;16.00;99.90;;;;;;5095209;28;20574;-80
2023/09/05 04:49:11;;;;;;;11.33;7.40;;;16.00;99.90;;;;;;5095898;28;20179;-80
2023/09/05 04:51:36;;;;;;;13.50;6.97;;;16.00;99.90;;;;;;5095756;28;20278;-80
2023/09/05 04:54:02;;;;;;;11.30;7.20;;;16.00;99.90;;;;;;5094777;28;20720;-79
2023/09/05 04:56:28;;;;;;;11.10;7.30;;;15.90;99.90;;;;;;5096026;28;20164;-80
2023/09/05 04:58:53;;;;;;;10.53;7.43;;;16.00;99.90;;;;;;5095846;28;20667;-79
2023/09/05 05:01:19;;;;;;;11.77;7.40;;;16.00;99.90;;;;;;5095426;28;20281;-80
2023/09/05 05:03:45;;;;;;;18.03;8.00;;;16.00;99.90;;;;;;5095883;28;20168;-79
2023/09/05 05:06:10;;;;;;;14.23;7.47;;;16.10;99.90;;;;;;5094936;28;20686;-79
2023/09/05 05:08:36;;;;;;;10.57;7.93;;;16.10;99.90;;;;;;5095211;28;20183;-78
2023/09/05 05:11:07;;;;;;;8.67;7.23;;;16.10;99.90;;;;;;5094126;28;20623;-79
2023/09/05 05:13:36;;;;;;;9.17;7.20;;;16.10;99.90;;;;;;5095790;28;20172;-80
2023/09/05 05:16:01;;;;;;;8.07;7.10;;;16.20;99.90;;;;;;5095219;28;20217;-79
2023/09/05 05:18:27;;;;;;;11.13;7.10;;;16.30;99.90;;;;;;5094682;28;20176;-81
2023/09/05 05:20:53;;;;;;;7.77;6.50;;;16.40;99.90;;;;;;5094716;28;20218;-80
2023/09/05 05:23:18;;;;;;;9.67;6.40;;;17.00;99.90;;;;;;5095356;28;20229;-79
2023/09/05 05:25:44;;;;;;;7.73;6.23;;;17.60;99.90;;;;;;5094342;28;20175;-79
2023/09/05 05:28:09;;;;;;;11.40;6.07;;;18.60;99.90;;;;;;5093651;28;20168;-79
2023/09/05 05:30:36;;;;;;;9.88;6.28;;;19.40;99.90;;;;;;5094552;28;20179;-80
2023/09/05 05:33:02;;;;;;;20.55;6.82;;;19.90;99.90;;;;;;5095110;28;20666;-81
2023/09/05 05:35:28;;;;;;;12.43;6.53;;;20.10;99.90;;;;;;5093744;28;20192;-80
2023/09/05 05:37:53;;;;;;;26.25;7.53;;;19.90;99.90;;;;;;5094493;28;20191;-81
2023/09/05 05:40:19;;;;;;;35.13;8.75;;;19.70;99.90;;;;;;5094421;28;20211;-79
2023/09/05 05:42:45;;;;;;;25.25;7.97;;;20.00;99.90;;;;;;5094362;28;20167;-79
2023/09/05 05:45:10;;;;;;;27.35;7.95;;;20.20;99.90;;;;;;5094477;28;20501;-79
2023/09/05 05:47:36;;;;;;;18.95;6.22;;;20.30;99.90;;;;;;5092684;28;20195;-79
2023/09/05 05:50:02;;;;;;;20.33;6.15;;;20.40;99.90;;;;;;5094209;28;20164;-80
2023/09/05 05:52:28;;;;;;;23.13;7.07;;;21.30;99.90;;;;;;5094715;28;20170;-80
2023/09/05 05:54:53;;;;;;;11.63;5.20;;;22.70;99.90;;;;;;5093980;28;20553;-80
2023/09/05 05:57:19;;;;;;;7.93;3.97;;;23.70;99.90;;;;;;5092736;28;20504;-80
2023/09/05 05:59:44;;;;;;;10.43;4.88;;;24.20;98.60;;;;;;5093221;28;20253;-79
2023/09/05 06:02:10;;;;;;;11.18;3.97;;;24.60;98.00;;;;;;5093395;28;20542;-79
2023/09/05 06:04:36;;;;;;;6.20;3.83;;;24.50;96.60;;;;;;5092694;28;20174;-79
2023/09/05 06:07:01;;;;;;;9.48;3.85;;;24.30;97.40;;;;;;5095370;28;20167;-79
2023/09/05 06:09:27;;;;;;;8.25;3.85;;;25.00;96.70;;;;;;5097033;28;20227;-79
2023/09/05 06:11:53;;;;;;;6.15;4.03;;;25.80;95.00;;;;;;5095414;28;20317;-79
2023/09/05 06:14:19;;;;;;;8.05;4.32;;;25.50;93.90;;;;;;5093538;28;20321;-77
2023/09/05 06:16:47;;;;;;;7.85;3.97;;;26.00;94.60;;;;;;5093255;28;20197;-78
2023/09/05 06:19:14;;;;;;;3.88;3.28;;;26.50;92.30;;;;;;5092663;28;20211;-76
2023/09/05 06:21:40;;;;;;;10.40;4.28;;;26.00;91.70;;;;;;5093409;28;20550;-77
2023/09/05 06:24:06;;;;;;;9.85;5.10;;;27.10;90.80;;;;;;5093436;28;20313;-78
2023/09/05 06:26:32;;;;;;;13.40;5.30;;;28.90;85.90;;;;;;5093182;28;20180;-76
2023/09/05 06:28:58;;;;;;;13.65;5.75;;;30.70;76.90;;;;;;5093018;28;20187;-75
2023/09/05 06:31:23;;;;;;;14.07;5.10;;;32.20;66.10;;;;;;5092448;28;20291;-75
2023/09/05 06:33:49;;;;;;;9.55;5.32;;;33.10;59.00;;;;;;5092999;28;20195;-76
2023/09/05 06:36:15;;;;;;;16.00;5.55;;;34.00;54.80;;;;;;5093511;28;20247;-76
2023/09/05 06:38:41;;;;;;;10.38;4.50;;;34.40;51.70;;;;;;5092672;28;20508;-75
2023/09/05 06:41:08;;;;;;;8.65;4.43;;;35.10;48.00;;;;;;5093382;28;20266;-75
2023/09/05 06:43:34;;;;;;;6.47;3.70;;;35.80;44.40;;;;;;5092988;28;20199;-76
2023/09/05 06:46:04;;;;;;;6.68;3.97;;;35.70;42.80;;;;;;5092913;28;20195;-75
2023/09/05 06:48:30;;;;;;;4.97;3.60;;;36.10;41.90;;;;;;5091735;28;20172;-75
2023/09/05 06:50:57;;;;;;;5.55;4.10;;;36.10;39.50;;;;;;5094390;28;20175;-81
2023/09/05 06:53:23;;;;;;;6.35;4.10;;;37.00;37.50;;;;;;5113482;28;20239;-81
2023/09/05 06:55:48;;;;;;;9.68;3.63;;;36.10;37.00;;;;;;5107101;28;20193;-78
2023/09/05 06:58:14;;;;;;;3.20;2.97;;;35.60;36.20;;;;;;5109672;28;20641;-80
2023/09/05 07:00:39;;;;;;;3.67;3.35;;;35.10;37.20;;;;;;5094908;28;20215;-78
2023/09/05 07:03:05;;;;;;;4.10;3.35;;;34.10;39.80;;;;;;5096235;28;20531;-78
2023/09/05 07:05:31;;;;;;;4.80;3.40;;;34.40;40.20;;;;;;5097748;28;20254;-79
2023/09/05 07:07:56;;;;;;;6.30;3.83;;;35.30;39.30;;;;;;5101995;28;20171;-79
2023/09/05 07:10:22;;;;;;;4.03;3.28;;;36.80;37.00;;;;;;5101705;28;20179;-80
2023/09/05 07:12:47;;;;;;;6.55;3.40;;;37.80;35.30;;;;;;5102704;28;20167;-79
2023/09/05 07:15:13;;;;;;;3.28;2.97;;;38.30;32.80;;;;;;5099418;28;20220;-80
2023/09/05 07:17:39;;;;;;;2.83;2.63;;;36.60;32.70;;;;;;5101982;28;20160;-79
2023/09/05 07:20:05;;;;;;;3.55;3.25;;;34.50;34.20;;;;;;5097126;28;20231;-78
2023/09/05 07:22:30;;;;;;;3.47;3.15;;;33.70;37.60;;;;;;5093651;28;20221;-78
2023/09/05 07:24:56;;;;;;;3.60;3.40;;;34.80;37.20;;;;;;5093903;28;20594;-77
2023/09/05 07:27:22;;;;;;;2.60;2.40;;;33.80;36.90;;;;;;5093394;28;20611;-78
2023/09/05 07:29:47;;;;;;;3.10;2.88;;;34.20;37.50;;;;;;5096218;28;20179;-79
2023/09/05 07:32:13;;;;;;;3.95;2.67;;;32.60;39.10;;;;;;5093854;28;20357;-78
2023/09/05 07:34:38;;;;;;;6.65;2.95;;;32.40;41.00;;;;;;5093171;28;20245;-78
2023/09/05 07:37:04;;;;;;;3.63;2.85;;;33.50;41.20;;;;;;5085922;28;20187;-78
2023/09/05 07:39:29;;;;;;;3.30;2.90;;;33.80;39.10;;;;;;5084317;28;20627;-80
2023/09/05 07:41:55;;;;;;;3.20;2.60;;;33.30;39.60;;;;;;5083670;28;20168;-78
2023/09/05 07:44:21;;;;;;;3.15;2.70;;;32.00;42.40;;;;;;5090179;28;20578;-79
2023/09/05 07:46:46;;;;;;;2.60;2.40;;;32.50;42.80;;;;;;5092045;28;20528;-79
2023/09/05 07:49:13;;;;;;;2.83;2.70;;;31.90;43.20;;;;;;5092552;28;20233;-78
2023/09/05 07:51:39;;;;;;;2.55;2.35;;;32.80;42.90;;;;;;5092221;28;20176;-77
2023/09/05 07:54:10;;;;;;;2.88;2.10;;;33.40;40.20;;;;;;5092396;28;20172;-78
2023/09/05 07:56:36;;;;;;;3.72;2.70;;;33.60;40.30;;;;;;5091583;28;20202;-78
2023/09/05 07:59:02;;;;;;;2.60;2.38;;;34.10;39.30;;;;;;5091750;28;20659;-79
2023/09/05 08:01:28;;;;;;;2.60;2.40;;;34.70;37.90;;;;;;5092081;28;20555;-78
2023/09/05 08:03:53;;;;;;;2.78;2.58;;;33.40;39.20;;;;;;5093346;28;20645;-80
2023/09/05 08:06:20;;;;;;;2.53;2.38;;;33.20;40.10;;;;;;5092310;28;20589;-80
2023/09/05 08:08:45;;;;;;;2.45;2.28;;;31.80;42.30;;;;;;5092354;28;20199;-78
2023/09/05 08:11:11;;;;;;;2.47;2.30;;;31.10;43.30;;;;;;5091910;28;20164;-78
2023/09/05 08:13:36;;;;;;;2.70;2.40;;;31.50;44.20;;;;;;5091667;28;20220;-79
2023/09/05 08:16:03;;;;;;;3.20;2.63;;;31.70;44.40;;;;;;5091648;28;20179;-80
2023/09/05 08:18:29;;;;;;;4.00;2.40;;;30.90;46.20;;;;;;5091489;28;20172;-80
2023/09/05 08:20:57;;;;;;;2.63;2.42;;;31.90;45.00;;;;;;5091516;28;20219;-80
2023/09/05 08:23:23;;;;;;;2.45;2.25;;;32.50;43.40;;;;;;5095726;28;20241;-76
2023/09/05 08:25:51;;;;;;;2.78;2.58;;;33.20;42.20;;;;;;5095789;28;20620;-77
2023/09/05 08:28:19;;;;;;;2.22;2.13;;;33.50;40.60;;;;;;5095297;28;20207;-78
2023/09/05 08:30:44;;;;;;;2.58;2.10;;;33.50;40.10;;;;;;5095058;28;20183;-79
2023/09/05 08:33:10;;;;;;;2.78;2.13;;;33.70;40.20;;;;;;5095682;28;20233;-79
2023/09/05 08:35:37;;;;;;;2.45;2.25;;;34.00;39.40;;;;;;5095493;28;20537;-79
2023/09/05 08:38:05;;;;;;;2.38;2.03;;;34.40;38.50;;;;;;5094390;28;20202;-78
2023/09/05 08:40:34;;;;;;;4.00;2.08;;;34.80;37.30;;;;;;5095119;28;20256;-78
2023/09/05 08:43:01;;;;;;;2.83;2.40;;;34.40;38.30;;;;;;5094597;28;20172;-79
2023/09/05 08:45:29;;;;;;;2.10;2.00;;;34.70;37.90;;;;;;5095256;28;20823;-79
2023/09/05 08:47:55;;;;;;;2.40;2.00;;;34.80;37.30;;;;;;5095232;28;20175;-80
2023/09/05 08:50:22;;;;;;;2.75;2.10;;;34.50;36.70;;;;;;5095664;28;20160;-79
2023/09/05 08:52:50;;;;;;;2.75;2.00;;;34.40;37.70;;;;;;5095160;28;20171;-77
2023/09/05 08:55:16;;;;;;;4.30;2.10;;;33.60;38.10;;;;;;5095019;28;20176;-78
2023/09/05 08:57:47;;;;;;;2.20;2.10;;;33.40;38.50;;;;;;5094287;28;20175;-78
2023/09/05 09:00:17;;;;;;;2.60;2.40;;;33.00;39.10;;;;;;5094531;28;20204;-78
2023/09/05 09:02:42;;;;;;;2.30;2.20;;;33.10;40.50;;;;;;5094379;28;20182;-79
2023/09/05 09:05:08;;;;;;;2.20;2.00;;;32.50;40.20;;;;;;5093157;28;20172;-79
2023/09/05 09:07:35;;;;;;;2.65;2.33;;;32.30;42.20;;;;;;5094700;28;20267;-79
2023/09/05 09:10:19;;;;;;;2.50;2.33;;;32.90;41.80;;;;;;5094874;28;20274;-77
2023/09/05 09:12:45;;;;;;;2.35;2.13;;;33.00;41.90;;;;;;5094768;28;20779;-79
2023/09/05 09:15:14;;;;;;;2.30;2.13;;;32.90;41.70;;;;;;5094461;28;20184;-81
2023/09/05 09:17:47;;;;;;;2.05;1.95;;;34.00;41.40;;;;;;5093344;28;20784;-79
2023/09/05 09:20:13;;;;;;;3.85;2.10;;;34.30;40.20;;;;;;5094871;28;20231;-80
2023/09/05 09:22:40;;;;;;;2.55;2.33;;;34.30;39.70;;;;;;5094741;28;20164;-77
2023/09/05 09:25:22;;;;;;;2.70;2.10;;;33.90;40.10;;;;;;5094697;28;20176;-80
2023/09/05 09:27:55;;;;;;;2.50;2.33;;;34.10;40.70;;;;;;5094505;28;20168;-79
2023/09/05 09:30:23;;;;;;;2.50;2.30;;;33.40;42.70;;;;;;5094012;28;20184;-80
2023/09/05 09:32:52;;;;;;;3.55;2.17;;;33.60;42.20;;;;;;5093312;28;20233;-78
2023/09/05 09:35:18;;;;;;;3.97;2.67;;;33.00;42.30;;;;;;5094041;28;20172;-77
2023/09/05 09:37:49;;;;;;;2.25;2.08;;;33.50;43.60;;;;;;5094416;28;20221;-78
2023/09/05 09:40:18;;;;;;;3.00;2.63;;;34.00;42.70;;;;;;5094172;28;20261;-76
2023/09/05 09:42:53;;;;;;;2.78;2.50;;;33.70;42.90;;;;;;5093406;28;20184;-77
2023/09/05 09:45:19;;;;;;;3.00;2.25;;;33.40;43.30;;;;;;5094719;28;20180;-79
2023/09/05 09:47:47;;;;;;;2.90;2.25;;;33.60;43.80;;;;;;5093983;28;20168;-77
2023/09/05 09:50:14;;;;;;;4.40;2.63;;;33.40;43.90;;;;;;5094637;28;20208;-79
2023/09/05 09:52:43;;;;;;;2.95;2.30;;;33.90;42.80;;;;;;5092007;28;20214;-80
2023/09/05 09:55:13;;;;;;;3.10;2.30;;;34.30;42.20;;;;;;5080725;28;20744;-78
2023/09/05 09:57:45;;;;;;;2.13;1.98;;;34.20;42.10;;;;;;5074625;28;20164;-78
2023/09/05 10:00:15;;;;;;;4.20;2.30;;;34.00;41.90;;;;;;5094135;28;20235;-79
2023/09/05 10:02:43;;;;;;;4.90;2.67;;;32.60;44.10;;;;;;5094561;28;20168;-79
2023/09/05 10:05:11;;;;;;;4.15;2.70;;;32.90;45.60;;;;;;5093939;28;20630;-79
2023/09/05 10:07:37;;;;;;;2.65;2.55;;;33.40;44.50;;;;;;5092942;28;20342;-80
2023/09/05 10:10:05;;;;;;;2.65;2.20;;;33.50;44.00;;;;;;5093311;28;20179;-80
2023/09/05 10:12:31;;;;;;;2.72;2.53;;;33.00;44.10;;;;;;5094448;28;20217;-75
2023/09/05 10:14:58;;;;;;;2.97;2.63;;;32.20;46.10;;;;;;5093617;28;20176;-81
2023/09/05 10:17:25;;;;;;;2.47;2.25;;;32.30;46.60;;;;;;5093701;28;20168;-79
2023/09/05 10:19:53;;;;;;;3.58;2.78;;;32.90;46.00;;;;;;5093131;28;20302;-80
2023/09/05 10:22:19;;;;;;;3.17;2.22;;;33.30;45.20;;;;;;5093146;28;20175;-79
2023/09/05 10:24:45;;;;;;;2.45;2.35;;;33.50;45.90;;;;;;5093288;28;20172;-81
2023/09/05 10:27:11;;;;;;;3.75;2.33;;;33.70;44.90;;;;;;5093741;28;20176;-80
2023/09/05 10:29:45;;;;;;;2.95;2.30;;;34.00;44.00;;;;;;5093272;28;20172;-82
2023/09/05 10:32:22;;;;;;;4.57;2.40;;;34.80;42.90;;;;;;5093978;28;20217;-78
2023/09/05 10:34:48;;;;;;;2.80;2.58;;;35.50;41.30;;;;;;5094321;28;20179;-80
2023/09/05 10:37:37;;;;;;;3.60;2.38;;;35.70;40.70;;;;;;5093654;28;20611;-79
2023/09/05 10:40:08;;;;;;;3.08;2.88;;;35.10;42.00;;;;;;5054558;28;20222;-80
2023/09/05 10:42:36;;;;;;;2.50;2.30;;;35.60;42.20;;;;;;5093488;28;20611;-78
2023/09/05 10:45:18;;;;;;;2.70;2.50;;;35.30;41.30;;;;;;5092441;28;20203;-78
2023/09/05 10:47:44;;;;;;;2.63;2.42;;;35.00;42.60;;;;;;5093472;28;20171;-80
2023/09/05 10:50:12;;;;;;;2.72;2.30;;;34.40;42.50;;;;;;5093333;28;20163;-80
2023/09/05 10:52:38;;;;;;;2.97;2.53;;;34.30;43.80;;;;;;5093221;28;20159;-81
2023/09/05 10:55:29;;;;;;;2.78;2.45;;;34.30;43.80;;;;;;5092618;28;20176;-79
2023/09/05 10:57:58;;;;;;;2.25;2.10;;;33.60;45.00;;;;;;5093986;28;20179;-81
2023/09/05 11:00:26;;;;;;;3.40;3.10;;;33.40;45.90;;;;;;5093452;28;20204;-80
2023/09/05 11:02:55;;;;;;;3.40;3.00;;;33.20;47.10;;;;;;5091838;28;20502;-80
2023/09/05 11:05:23;;;;;;;3.03;2.80;;;33.60;47.00;;;;;;5093113;28;20198;-79
2023/09/05 11:07:50;;;;;;;4.03;2.60;;;33.90;46.90;;;;;;5092496;28;20156;-79
2023/09/05 11:10:25;;;;;;;2.70;2.50;;;33.50;47.10;;;;;;5092227;28;20176;-79
2023/09/05 11:12:51;;;;;;;5.47;3.40;;;33.90;46.30;;;;;;5093001;28;20171;-78
2023/09/05 11:15:35;;;;;;;2.65;2.47;;;33.80;46.60;;;;;;5092999;28;20180;-81
2023/09/05 11:18:04;;;;;;;3.17;2.85;;;33.40;48.00;;;;;;5091962;28;20615;-80
2023/09/05 11:20:40;;;;;;;3.65;3.35;;;34.00;47.20;;;;;;5091845;28;20234;-80
2023/09/05 11:23:17;;;;;;;2.60;2.45;;;33.60;48.80;;;;;;5091423;28;20172;-78
2023/09/05 11:25:50;;;;;;;7.47;3.17;;;33.40;48.50;;;;;;5092451;28;20187;-79
2023/09/05 11:28:16;;;;;;;3.63;2.97;;;33.40;48.60;;;;;;5087584;28;20187;-79
2023/09/05 11:30:46;;;;;;;2.97;2.75;;;32.70;50.70;;;;;;5080105;28;20176;-78
2023/09/05 11:33:16;;;;;;;3.63;2.83;;;33.00;50.10;;;;;;5092090;28;20294;-79
2023/09/05 11:35:42;;;;;;;3.00;2.70;;;33.00;50.20;;;;;;5090817;28;20171;-79
2023/09/05 11:38:09;;;;;;;3.08;2.90;;;31.70;54.30;;;;;;5089099;28;20164;-81
2023/09/05 11:40:35;;;;;;;3.38;2.78;;;31.20;55.80;;;;;;5072583;28;20208;-79
2023/09/05 11:43:11;;;;;;;3.08;2.88;;;31.30;56.90;;;;;;5073464;28;20533;-81
2023/09/05 11:45:39;;;;;;;2.90;2.70;;;31.80;55.70;;;;;;5078117;28;20184;-83
2023/09/05 11:48:08;;;;;;;5.10;3.40;;;31.80;56.10;;;;;;5081997;28;20211;-83
2023/09/05 11:50:34;;;;;;;2.65;2.42;;;31.60;57.10;;;;;;5071996;28;20256;-81
2023/09/05 11:53:03;;;;;;;3.25;3.05;;;31.40;57.00;;;;;;5071853;28;20259;-78
2023/09/05 11:55:29;;;;;;;2.97;2.80;;;31.50;57.60;;;;;;5080981;28;20235;-81
2023/09/05 11:57:57;;;;;;;3.15;2.83;;;31.30;57.90;;;;;;5073247;28;20762;-76
2023/09/05 12:00:24;;;;;;;3.55;2.80;;;32.00;57.20;;;;;;5088686;28;20211;-76
2023/09/05 12:02:55;;;;;;;4.32;2.90;;;32.00;57.50;;;;;;5075725;28;20176;-78
2023/09/05 12:05:21;;;;;;;2.85;2.65;;;31.90;57.20;;;;;;5085829;28;20191;-80
2023/09/05 12:07:51;;;;;;;2.70;2.60;;;31.50;58.40;;;;;;5075416;28;20588;-80
2023/09/05 12:10:17;;;;;;;2.90;2.70;;;31.50;59.70;;;;;;5077678;28;20271;-80
2023/09/05 12:12:53;;;;;;;3.25;2.95;;;31.50;58.00;;;;;;5086895;28;20636;-78
2023/09/05 12:15:28;;;;;;;3.05;2.80;;;31.30;59.50;;;;;;5086226;28;20663;-79
2023/09/05 12:17:54;;;;;;;2.65;2.47;;;31.20;60.30;;;;;;5075681;28;20176;-79
2023/09/05 12:20:19;;;;;;;2.75;2.55;;;31.00;60.10;;;;;;5078560;28;20228;-79
2023/09/05 12:22:47;;;;;;;3.50;2.58;;;31.00;60.50;;;;;;5075665;28;20628;-77
2023/09/05 12:25:17;;;;;;;3.15;2.75;;;30.40;61.30;;;;;;5096192;28;20180;-79
2023/09/05 12:27:44;;;;;;;2.67;2.50;;;30.30;63.80;;;;;;5075352;28;20168;-76
2023/09/05 12:30:29;;;;;;;3.10;2.80;;;30.00;64.60;;;;;;5077662;28;20184;-79
2023/09/05 12:32:59;;;;;;;2.97;2.70;;;29.80;67.30;;;;;;5074999;28;20279;-78
2023/09/05 12:35:28;;;;;;;4.07;2.40;;;30.00;67.40;;;;;;5088175;28;20229;-80
2023/09/05 12:37:54;;;;;;;3.17;2.97;;;30.10;68.20;;;;;;5083122;28;20245;-80
2023/09/05 12:40:21;;;;;;;5.05;3.42;;;30.10;67.00;;;;;;5077423;28;20691;-84
2023/09/05 12:42:49;;;;;;;5.07;2.92;;;30.10;69.40;;;;;;5077901;28;20297;-86
2023/09/05 12:45:16;;;;;;;3.75;3.13;;;30.30;68.50;;;;;;5084844;28;20177;-78
2023/09/05 12:47:41;;;;;;;5.32;2.80;;;30.60;68.30;;;;;;5078754;28;20172;-80